Time;durP1;ratioP1;P1;durP2;ratioP2;P2;SDS_P1;SDS_P2;PMS_P1;PMS_P2;Temp;Humidity;BMP_temperature;BMP_pressure;BME280_temperature;BME280_humidity;BME280_pressure;Samples;Min_cycle;Max_cycle;Signal;HPM_P1;HPM_P2
2022/06/03 00:02:12;;;;;;;7.10;3.30;;;;;;;;;;5074305;28;20032;-65
2022/06/03 00:04:57;;;;;;;4.25;3.05;;;;;;;;;;5074529;28;20388;-66
2022/06/03 00:07:43;;;;;;;5.45;3.08;;;;;;;;;;5074348;28;20040;-66
2022/06/03 00:10:16;;;;;;;6.20;2.63;;;;;;;;;;5074354;28;20051;-65
2022/06/03 00:12:48;;;;;;;6.05;2.88;;;;;;;;;;5074575;28;20496;-65
2022/06/03 00:15:13;;;;;;;;;;;;;;;;;;5074858;28;20111;-65
2022/06/03 00:17:49;;;;;;;3.30;2.63;;;;;;;;;;5074392;28;20352;-65
2022/06/03 00:20:21;;;;;;;3.85;2.53;;;;;;;;;;5074458;28;20028;-65
2022/06/03 00:23:03;;;;;;;8.82;2.55;;;;;;;;;;5074498;28;20103;-65
2022/06/03 00:25:29;;;;;;;5.85;2.67;;;;;;;;;;5074162;28;20113;-65
2022/06/03 00:27:56;;;;;;;6.05;2.30;;;;;;;;;;5074212;28;20485;-65
2022/06/03 00:30:25;;;;;;;5.65;2.30;;;;;;;;;;5074081;28;20099;-65
2022/06/03 00:33:10;;;;;;;5.40;2.25;;;;;;;;;;5074345;28;20035;-65
2022/06/03 00:35:42;;;;;;;9.02;2.40;;;;;;;;;;5074217;28;20027;-65
2022/06/03 00:38:21;;;;;;;3.88;1.83;;;;;;;;;;5074056;28;20032;-65
2022/06/03 00:41:06;;;;;;;3.05;1.92;;;;;;;;;;5074196;28;20373;-65
2022/06/03 00:43:50;;;;;;;2.25;1.60;;;;;;;;;;5074428;28;20035;-65
2022/06/03 00:46:16;;;;;;;3.80;1.60;;;;;;;;;;5074027;28;20047;-65
2022/06/03 00:48:45;;;;;;;3.42;1.70;;;;;;;;;;5073555;28;20111;-64
2022/06/03 00:51:24;;;;;;;4.07;1.83;;;;;;;;;;5073274;28;20072;-65
2022/06/03 00:54:10;;;;;;;2.85;1.58;;;;;;;;;;5073954;28;20031;-65
2022/06/03 00:56:39;;;;;;;3.17;1.45;;;;;;;;;;5069722;28;20097;-65
2022/06/03 00:59:17;;;;;;;3.15;1.45;;;;;;;;;;5070839;28;20089;-65
2022/06/03 01:01:50;;;;;;;1.65;1.30;;;;;;;;;;5070811;28;20422;-65
2022/06/03 01:04:22;;;;;;;4.90;2.22;;;;;;;;;;5071610;28;20055;-65
2022/06/03 01:06:48;;;;;;;;;;;;;;;;;;5073592;28;20075;-64
2022/06/03 01:09:29;;;;;;;2.35;1.30;;;;;;;;;;5073381;28;20348;-65
2022/06/03 01:12:10;;;;;;;2.15;1.38;;;;;;;;;;5073131;28;20466;-65
2022/06/03 01:14:42;;;;;;;1.40;1.10;;;;;;;;;;5073191;28;20024;-65
2022/06/03 01:17:08;;;;;;;;;;;;;;;;;;5073884;28;20294;-65
2022/06/03 01:19:40;;;;;;;2.20;1.17;;;;;;;;;;5073312;28;19944;-65
2022/06/03 01:22:09;;;;;;;2.55;1.40;;;;;;;;;;5072827;28;20025;-65
2022/06/03 01:24:57;;;;;;;2.00;1.30;;;;;;;;;;5073533;28;20366;-65
2022/06/03 01:27:42;;;;;;;5.63;1.27;;;;;;;;;;5073343;28;20047;-65
2022/06/03 01:30:34;;;;;;;2.03;1.50;;;;;;;;;;5072998;28;20045;-65
2022/06/03 01:33:11;;;;;;;1.77;1.40;;;;;;;;;;5071848;28;20049;-65
2022/06/03 01:35:53;;;;;;;4.28;1.30;;;;;;;;;;5073164;28;20538;-65
2022/06/03 01:38:19;;;;;;;;;;;;;;;;;;5073368;28;20020;-65
2022/06/03 01:40:45;;;;;;;1.80;1.30;;;;;;;;;;5073204;28;19954;-66
2022/06/03 01:43:22;;;;;;;3.05;1.30;;;;;;;;;;5072873;28;20540;-65
2022/06/03 01:45:55;;;;;;;2.53;1.50;;;;;;;;;;5073238;28;20031;-65
2022/06/03 01:48:30;;;;;;;1.80;1.50;;;;;;;;;;5073184;28;20381;-65
2022/06/03 01:51:15;;;;;;;2.85;1.30;;;;;;;;;;5073385;28;20044;-65
2022/06/03 01:54:00;;;;;;;8.07;2.47;;;;;;;;;;5073223;28;20397;-66
2022/06/03 01:56:37;;;;;;;2.13;1.38;;;;;;;;;;5072847;28;20097;-66
2022/06/03 01:59:21;;;;;;;5.03;1.48;;;;;;;;;;5072704;28;20029;-67
2022/06/03 02:02:06;;;;;;;6.95;1.73;;;;;;;;;;5072839;28;20102;-66
2022/06/03 02:05:07;;;;;;;1.80;1.48;;;;;;;;;;5076081;28;20118;-66
2022/06/03 02:07:50;;;;;;;4.50;1.50;;;;;;;;;;5054457;28;20025;-64
2022/06/03 02:10:22;;;;;;;2.80;1.25;;;;;;;;;;5074888;28;20110;-64
2022/06/03 02:12:54;;;;;;;5.65;1.63;;;;;;;;;;5076699;28;20493;-64
2022/06/03 02:15:39;;;;;;;2.55;1.58;;;;;;;;;;5076804;28;20025;-65
2022/06/03 02:18:24;;;;;;;3.45;1.40;;;;;;;;;;5076637;28;20028;-66
2022/06/03 02:21:01;;;;;;;4.20;1.60;;;;;;;;;;5076771;28;20032;-66
2022/06/03 02:23:27;;;;;;;4.35;1.60;;;;;;;;;;5076300;28;20032;-66
2022/06/03 02:26:02;;;;;;;2.95;1.83;;;;;;;;;;5076421;28;20013;-66
2022/06/03 02:28:31;;;;;;;4.05;1.55;;;;;;;;;;5076174;28;20028;-66
2022/06/03 02:31:01;;;;;;;1.85;1.40;;;;;;;;;;5076132;28;20493;-66
2022/06/03 02:33:42;;;;;;;1.60;1.30;;;;;;;;;;5076480;28;20028;-66
2022/06/03 02:36:27;;;;;;;3.87;1.50;;;;;;;;;;5076357;28;20028;-66
2022/06/03 02:39:01;;;;;;;4.75;1.52;;;;;;;;;;5076463;28;20032;-66
2022/06/03 02:41:52;;;;;;;7.18;1.50;;;;;;;;;;5076427;28;20035;-66
2022/06/03 02:44:37;;;;;;;2.30;1.50;;;;;;;;;;5076049;28;20024;-66
2022/06/03 02:47:22;;;;;;;2.05;1.40;;;;;;;;;;5076310;28;20489;-66
2022/06/03 04:16:25;;;;;;;5.25;2.00;;;;;;;;;;5076480;28;20415;-68
2022/06/03 04:19:10;;;;;;;3.90;1.88;;;;;;;;;;5094257;28;20040;-69
2022/06/03 04:22:05;;;;;;;5.35;2.05;;;;;;;;;;5094506;28;20032;-68
2022/06/03 04:24:37;;;;;;;5.28;1.80;;;;;;;;;;5076943;28;20032;-65
2022/06/03 04:27:03;;;;;;;;;;;;;;;;;;5094586;28;20029;-66
2022/06/03 04:29:35;;;;;;;2.65;1.77;;;;;;;;;;5092652;28;19911;-68
2022/06/03 04:32:04;;;;;;;3.75;1.98;;;;;;;;;;5092959;28;20090;-66
2022/06/03 04:34:39;;;;;;;2.75;1.80;;;;;;;;;;5093248;28;20028;-66
2022/06/03 04:37:25;;;;;;;2.38;1.80;;;;;;;;;;5092886;28;20377;-66
2022/06/03 04:39:57;;;;;;;5.50;1.77;;;;;;;;;;5093755;28;20024;-66
2022/06/03 04:42:47;;;;;;;2.22;1.75;;;;;;;;;;5093256;28;20498;-66
2022/06/03 04:45:32;;;;;;;4.20;1.85;;;;;;;;;;5093913;28;20082;-69
2022/06/03 04:48:13;;;;;;;4.03;1.80;;;;;;;;;;5093905;28;20035;-68
2022/06/03 04:50:56;;;;;;;7.43;2.00;;;;;;;;;;5093961;28;20043;-65
2022/06/03 04:53:26;;;;;;;4.32;2.22;;;;;;;;;;5092028;28;20156;-66
2022/06/03 04:56:10;;;;;;;9.50;2.28;;;;;;;;;;5093709;28;20125;-69
2022/06/03 04:59:00;;;;;;;3.05;2.00;;;;;;;;;;5092588;28;20040;-67
2022/06/03 05:01:45;;;;;;;2.55;2.00;;;;;;;;;;5092965;28;20443;-66
2022/06/03 05:04:30;;;;;;;4.47;2.28;;;;;;;;;;5093697;28;20040;-69
2022/06/03 05:07:14;;;;;;;7.88;1.77;;;;;;;;;;5093645;28;20066;-66
2022/06/03 05:09:59;;;;;;;3.03;1.52;;;;;;;;;;5093346;28;20032;-66
2022/06/03 05:12:46;;;;;;;3.25;1.67;;;;;;;;;;5093320;28;20036;-69
2022/06/03 05:15:30;;;;;;;2.80;1.90;;;;;;;;;;5093341;28;20028;-68
2022/06/03 05:18:03;;;;;;;4.32;1.80;;;;;;;;;;5093313;28;20070;-64
2022/06/03 05:20:35;;;;;;;3.08;1.80;;;;;;;;;;5093391;28;20494;-66
2022/06/03 05:23:08;;;;;;;5.75;1.80;;;;;;;;;;5093342;28;20515;-64
2022/06/03 05:25:34;;;;;;;3.75;2.00;;;;;;;;;;5093309;28;20035;-66
2022/06/03 05:28:00;;;;;;;4.13;1.50;;;;;;;;;;5092511;28;20039;-64
2022/06/03 05:30:26;;;;;;;4.15;1.75;;;;;;;;;;5092913;28;20032;-63
2022/06/03 05:32:52;;;;;;;3.78;1.75;;;;;;;;;;5092992;28;20418;-63
2022/06/03 05:35:24;;;;;;;3.67;1.60;;;;;;;;;;5093443;28;20040;-64
2022/06/03 05:37:50;;;;;;;;;;;;;;;;;;5093172;28;20365;-64
2022/06/03 05:40:17;;;;;;;2.70;1.45;;;;;;;;;;5093188;28;19912;-64
2022/06/03 05:43:06;;;;;;;5.88;1.60;;;;;;;;;;5093101;28;20549;-64
2022/06/03 05:45:44;;;;;;;2.65;1.60;;;;;;;;;;5092904;28;20384;-64
2022/06/03 05:48:10;;;;;;;3.00;1.60;;;;;;;;;;5092654;28;20032;-64
2022/06/03 05:50:42;;;;;;;4.53;1.40;;;;;;;;;;5092503;28;20032;-64
2022/06/03 05:53:22;;;;;;;7.95;1.75;;;;;;;;;;5092346;28;20036;-67
2022/06/03 05:56:03;;;;;;;2.58;2.00;;;;;;;;;;5092435;28;20111;-64
2022/06/03 05:58:32;;;;;;;7.25;1.70;;;;;;;;;;5093016;28;20032;-63
2022/06/03 06:01:08;;;;;;;4.20;1.60;;;;;;;;;;5092648;28;20496;-63
2022/06/03 06:03:53;;;;;;;5.68;1.73;;;;;;;;;;5092802;28;20032;-64
2022/06/03 06:06:31;;;;;;;12.57;2.30;;;;;;;;;;5092397;28;20056;-64
2022/06/03 06:09:16;;;;;;;2.28;1.65;;;;;;;;;;5092562;28;20175;-64
2022/06/03 06:11:42;;;;;;;5.38;3.05;;;;;;;;;;5092723;28;20043;-63
2022/06/03 06:14:11;;;;;;;4.05;1.55;;;;;;;;;;5090921;28;20035;-64
2022/06/03 06:16:42;;;;;;;4.90;1.63;;;;;;;;;;5091964;28;20510;-64
2022/06/03 06:19:11;;;;;;;2.40;1.55;;;;;;;;;;5092309;28;20473;-65
2022/06/03 06:21:56;;;;;;;7.55;1.75;;;;;;;;;;5092457;28;20392;-64
2022/06/03 06:24:46;;;;;;;3.92;1.90;;;;;;;;;;5092280;28;20036;-66
2022/06/03 06:27:21;;;;;;;2.30;1.50;;;;;;;;;;5081836;28;20513;-72
2022/06/03 06:29:48;;;;;;;5.10;1.85;;;;;;;;;;5072031;28;20059;-76
2022/06/03 06:32:26;;;;;;;4.68;1.65;;;;;;;;;;5075172;28;20086;-78
2022/06/03 06:35:01;;;;;;;2.95;1.58;;;;;;;;;;5072183;28;20029;-75
2022/06/03 06:37:36;;;;;;;5.15;1.50;;;;;;;;;;5072014;28;20044;-72
2022/06/03 06:40:22;;;;;;;2.70;1.27;;;;;;;;;;5071826;28;20341;-65
2022/06/03 06:42:59;;;;;;;4.55;1.65;;;;;;;;;;5030760;28;20040;-66
2022/06/03 06:45:27;;;;;;;5.05;1.73;;;;;;;;;;5071874;28;20090;-65
2022/06/03 06:47:58;;;;;;;3.40;1.60;;;;;;;;;;5071825;28;20044;-76
2022/06/03 06:50:24;;;;;;;3.53;1.40;;;;;;;;;;5072964;28;20036;-73
2022/06/03 06:52:50;;;;;;;3.00;1.60;;;;;;;;;;5075215;28;20045;-66
2022/06/03 06:55:22;;;;;;;3.45;1.30;;;;;;;;;;5074871;28;20045;-66
2022/06/03 06:57:50;;;;;;;3.25;1.58;;;;;;;;;;5074544;28;20404;-66
2022/06/03 07:00:27;;;;;;;8.80;1.70;;;;;;;;;;5075133;28;20166;-65
2022/06/03 07:03:16;;;;;;;3.30;1.73;;;;;;;;;;5073878;28;20029;-72
2022/06/03 07:06:09;;;;;;;3.75;1.50;;;;;;;;;;5037965;28;20037;-70
2022/06/03 07:08:34;;;;;;;;;;;;;;;;;;5063270;28;20064;-65
2022/06/03 07:11:05;;;;;;;5.28;1.95;;;;;;;;;;5054908;28;20270;-72
2022/06/03 07:13:31;;;;;;;4.93;1.70;;;;;;;;;;5066105;28;20039;-71
2022/06/03 07:16:11;;;;;;;5.40;1.70;;;;;;;;;;5074556;28;20044;-72
2022/06/03 07:21:37;;;;;;;5.97;1.63;;;;;;;;;;5074133;28;20381;-66
2022/06/03 07:24:10;;;;;;;3.83;1.60;;;;;;;;;;5074464;28;20042;-72
2022/06/03 07:26:46;;;;;;;5.57;1.65;;;;;;;;;;5074731;28;20035;-66
2022/06/03 07:29:30;;;;;;;3.55;1.65;;;;;;;;;;5074807;28;20041;-65
2022/06/03 07:32:01;;;;;;;2.85;1.50;;;;;;;;;;5075033;28;20048;-65
2022/06/03 07:34:27;;;;;;;4.33;1.80;;;;;;;;;;5075159;28;20060;-65
2022/06/03 07:37:12;;;;;;;4.13;1.70;;;;;;;;;;5074977;28;20029;-65
2022/06/03 07:39:43;;;;;;;2.85;1.73;;;;;;;;;;5074791;28;20408;-66
2022/06/03 07:42:13;;;;;;;5.75;1.80;;;;;;;;;;5075005;28;20025;-65
2022/06/03 07:44:55;;;;;;;4.97;2.10;;;;;;;;;;5074705;28;20035;-66
2022/06/03 07:47:23;;;;;;;5.55;1.70;;;;;;;;;;5074917;28;20074;-66
2022/06/03 07:49:54;;;;;;;7.97;1.90;;;;;;;;;;5074852;28;20037;-66
2022/06/03 07:52:32;;;;;;;6.72;1.75;;;;;;;;;;5074677;28;20041;-66
2022/06/03 07:54:58;;;;;;;3.92;1.85;;;;;;;;;;5074663;28;20071;-66
2022/06/03 07:57:26;;;;;;;4.82;1.73;;;;;;;;;;5075067;28;20089;-65
2022/06/03 07:59:55;;;;;;;7.38;1.50;;;;;;;;;;5074798;28;20036;-66
2022/06/03 08:02:22;;;;;;;2.88;1.65;;;;;;;;;;5074339;28;20107;-66
2022/06/03 08:04:50;;;;;;;5.78;1.75;;;;;;;;;;5074412;28;20441;-66
2022/06/03 08:12:56;;;;;;;4.28;1.42;;;;;;;;;;5074178;28;20110;-67
2022/06/03 08:15:24;;;;;;;4.22;1.58;;;;;;;;;;5073696;28;20111;-66
2022/06/03 08:17:50;;;;;;;2.83;1.77;;;;;;;;;;5073751;28;20045;-66
2022/06/03 08:20:18;;;;;;;3.55;1.67;;;;;;;;;;5073914;28;20061;-70
2022/06/03 08:22:45;;;;;;;5.15;1.92;;;;;;;;;;5073147;28;20032;-72
2022/06/03 08:25:14;;;;;;;3.50;1.90;;;;;;;;;;5073088;28;20381;-72
2022/06/03 08:27:40;;;;;;;3.35;1.58;;;;;;;;;;5073281;28;20028;-70
2022/06/03 08:30:08;;;;;;;9.57;2.10;;;;;;;;;;5073616;28;20037;-75
2022/06/03 08:32:37;;;;;;;3.13;1.92;;;;;;;;;;5073547;28;20040;-70
2022/06/03 08:35:13;;;;;;;3.08;1.70;;;;;;;;;;5072850;28;20040;-67
2022/06/03 08:37:47;;;;;;;4.18;1.77;;;;;;;;;;5072891;28;20067;-69
2022/06/03 08:40:22;;;;;;;7.03;2.10;;;;;;;;;;5072934;28;20068;-71
2022/06/03 08:42:50;;;;;;;8.05;1.60;;;;;;;;;;5073039;28;20103;-71
2022/06/03 08:45:35;;;;;;;6.13;1.55;;;;;;;;;;5073295;28;20040;-72
2022/06/03 08:48:07;;;;;;;6.07;2.50;;;;;;;;;;5073086;28;20597;-66
2022/06/03 08:50:33;;;;;;;;;;;;;;;;;;5073648;28;20029;-67
2022/06/03 08:53:18;;;;;;;3.67;1.80;;;;;;;;;;5073361;28;20420;-66
2022/06/03 08:55:52;;;;;;;6.20;2.00;;;;;;;;;;5073218;28;20037;-66
2022/06/03 08:58:21;;;;;;;3.28;1.55;;;;;;;;;;5072444;28;20043;-66
2022/06/03 09:00:58;;;;;;;3.60;2.00;;;;;;;;;;5073384;28;20028;-66
2022/06/03 09:03:25;;;;;;;3.38;1.58;;;;;;;;;;5073479;28;20040;-66
2022/06/03 09:06:12;;;;;;;6.93;2.13;;;;;;;;;;5073059;28;20033;-66
2022/06/03 09:08:44;;;;;;;2.97;1.65;;;;;;;;;;5072926;28;20036;-66
2022/06/03 09:11:10;;;;;;;6.45;1.55;;;;;;;;;;5054470;28;20494;-66
2022/06/03 09:13:36;;;;;;;4.82;1.70;;;;;;;;;;5071406;28;20115;-66
2022/06/03 09:16:04;;;;;;;5.57;1.88;;;;;;;;;;5071757;28;20059;-66
2022/06/03 09:18:50;;;;;;;10.18;1.90;;;;;;;;;;5071968;28;20481;-66
2022/06/03 09:21:23;;;;;;;7.07;2.10;;;;;;;;;;5072416;28;20036;-66
2022/06/03 09:23:54;;;;;;;4.75;1.90;;;;;;;;;;5071072;28;20029;-66
2022/06/03 09:26:28;;;;;;;5.47;1.70;;;;;;;;;;5072534;28;20024;-66
2022/06/03 09:28:56;;;;;;;3.03;1.75;;;;;;;;;;5072274;28;20044;-66
2022/06/03 09:31:22;;;;;;;6.88;2.13;;;;;;;;;;5071860;28;20045;-66
2022/06/03 09:33:50;;;;;;;4.53;1.90;;;;;;;;;;5070821;28;20048;-75
2022/06/03 09:36:18;;;;;;;3.83;1.58;;;;;;;;;;5071143;28;20433;-69
2022/06/03 09:38:48;;;;;;;3.33;2.00;;;;;;;;;;5070140;28;20068;-66
2022/06/03 09:41:15;;;;;;;6.78;2.00;;;;;;;;;;5070857;28;20033;-65
2022/06/03 09:43:43;;;;;;;3.40;1.92;;;;;;;;;;5071721;28;20041;-66
2022/06/03 09:46:11;;;;;;;6.63;1.80;;;;;;;;;;5070583;28;20033;-66
2022/06/03 09:48:39;;;;;;;5.55;1.80;;;;;;;;;;5070453;28;20051;-66
2022/06/03 09:51:10;;;;;;;5.75;1.90;;;;;;;;;;5070193;28;20064;-65
2022/06/03 09:53:40;;;;;;;2.88;1.80;;;;;;;;;;5072055;28;20048;-68
2022/06/03 09:56:07;;;;;;;6.68;1.63;;;;;;;;;;5071497;28;20037;-66
2022/06/03 09:58:34;;;;;;;11.02;2.08;;;;;;;;;;5070433;28;20505;-74
2022/06/03 10:01:03;;;;;;;7.70;1.77;;;;;;;;;;5071906;28;20120;-68
2022/06/03 10:03:29;;;;;;;4.57;2.08;;;;;;;;;;5070976;28;20484;-66
2022/06/03 10:05:56;;;;;;;4.43;1.92;;;;;;;;;;5072668;28;20060;-66
2022/06/03 10:08:25;;;;;;;4.43;1.85;;;;;;;;;;5069371;28;20075;-66
2022/06/03 10:13:38;;;;;;;11.05;2.47;;;;;;;;;;5068335;28;20152;-67
2022/06/03 10:16:07;;;;;;;8.13;2.38;;;;;;;;;;5069760;28;20040;-66
2022/06/03 10:18:39;;;;;;;9.32;2.13;;;;;;;;;;5068478;28;20056;-66
2022/06/03 10:21:05;;;;;;;4.78;1.63;;;;;;;;;;5069812;28;20192;-66
2022/06/03 10:23:33;;;;;;;4.03;2.20;;;;;;;;;;5069265;28;20024;-66
2022/06/03 10:26:01;;;;;;;14.63;2.33;;;;;;;;;;5074603;28;20047;-66
2022/06/03 10:28:32;;;;;;;9.18;2.65;;;;;;;;;;5074981;28;20456;-66
2022/06/03 10:31:00;;;;;;;4.83;2.13;;;;;;;;;;5075186;28;20036;-66
2022/06/03 10:33:27;;;;;;;5.65;2.10;;;;;;;;;;5075374;28;20044;-66
2022/06/03 10:35:56;;;;;;;6.10;2.20;;;;;;;;;;5075352;28;20495;-69
2022/06/03 10:38:22;;;;;;;5.63;2.00;;;;;;;;;;5075515;28;20043;-66
2022/06/03 10:40:49;;;;;;;6.07;2.50;;;;;;;;;;5074995;28;20030;-66
2022/06/03 10:43:21;;;;;;;12.38;2.35;;;;;;;;;;5074853;28;20067;-65
2022/06/03 10:45:47;;;;;;;4.82;2.05;;;;;;;;;;5075806;28;20028;-65
2022/06/03 10:48:21;;;;;;;5.35;2.10;;;;;;;;;;5075400;28;20059;-65
2022/06/03 10:50:47;;;;;;;7.88;2.40;;;;;;;;;;5075405;28;20024;-65
2022/06/03 11:01:06;;;;;;;4.82;2.13;;;;;;;;;;5075708;28;20090;-66
2022/06/03 11:01:52;;;;;;;6.60;2.10;;;;;;;;;;5075566;28;20063;-66
2022/06/03 11:04:27;;;;;;;5.38;2.00;;;;;;;;;;5075210;28;20025;-66
2022/06/03 11:06:54;;;;;;;13.82;2.42;;;;;;;;;;5072640;28;20110;-67
2022/06/03 11:09:22;;;;;;;4.07;1.83;;;;;;;;;;5073028;28;20044;-66
2022/06/03 11:12:04;;;;;;;4.20;1.95;;;;;;;;;;5075131;28;20484;-66
2022/06/03 11:14:40;;;;;;;4.75;2.25;;;;;;;;;;5072368;28;20397;-65
2022/06/03 11:17:17;;;;;;;5.47;2.20;;;;;;;;;;5072496;28;20052;-67
2022/06/03 11:19:46;;;;;;;5.68;2.22;;;;;;;;;;5074998;28;20530;-66
2022/06/03 11:22:16;;;;;;;8.18;2.30;;;;;;;;;;5074482;28;20033;-66
2022/06/03 11:24:42;;;;;;;6.53;2.20;;;;;;;;;;5073550;28;20111;-66
2022/06/03 11:27:10;;;;;;;5.53;2.60;;;;;;;;;;5073329;28;20033;-66
2022/06/03 11:29:38;;;;;;;11.00;3.17;;;;;;;;;;5075025;28;20032;-66
2022/06/03 11:32:06;;;;;;;4.10;2.65;;;;;;;;;;5075041;28;20378;-66
2022/06/03 11:34:44;;;;;;;4.47;1.92;;;;;;;;;;5074161;28;20059;-67
2022/06/03 11:37:31;;;;;;;6.32;2.10;;;;;;;;;;5071705;28;20079;-66
2022/06/03 11:40:02;;;;;;;6.68;2.38;;;;;;;;;;5070633;28;20129;-66
2022/06/03 11:42:33;;;;;;;4.45;2.10;;;;;;;;;;5073094;28;20043;-66
2022/06/03 11:44:59;;;;;;;5.65;2.05;;;;;;;;;;5073913;28;20024;-65
2022/06/03 11:47:49;;;;;;;6.15;2.30;;;;;;;;;;5074498;28;20362;-74
2022/06/03 11:50:16;;;;;;;4.03;2.00;;;;;;;;;;5053927;28;20513;-66
2022/06/03 11:52:42;;;;;;;7.75;2.20;;;;;;;;;;5054788;28;20123;-66
2022/06/03 11:55:08;;;;;;;6.55;2.17;;;;;;;;;;5073406;28;20548;-67
2022/06/03 11:57:35;;;;;;;5.80;2.33;;;;;;;;;;5073710;28;20075;-65
2022/06/03 12:00:06;;;;;;;5.30;2.08;;;;;;;;;;5073556;28;20049;-66
2022/06/03 12:02:39;;;;;;;8.07;2.30;;;;;;;;;;5073492;28;20388;-66
2022/06/03 12:05:09;;;;;;;5.30;2.70;;;;;;;;;;5072909;28;20037;-67
2022/06/03 12:07:47;;;;;;;6.47;2.45;;;;;;;;;;5073453;28;20033;-67
2022/06/03 12:10:13;;;;;;;11.15;2.75;;;;;;;;;;5074362;28;20044;-66
2022/06/03 12:15:35;;;;;;;6.38;2.65;;;;;;;;;;5074479;28;20392;-66
2022/06/03 12:18:06;;;;;;;8.73;2.50;;;;;;;;;;5073668;28;20052;-67
2022/06/03 12:20:32;;;;;;;7.95;2.33;;;;;;;;;;5073450;28;20040;-66
2022/06/03 12:23:18;;;;;;;5.70;2.50;;;;;;;;;;5072905;28;20048;-67
2022/06/03 12:25:54;;;;;;;6.25;2.10;;;;;;;;;;5070669;28;20040;-67
2022/06/03 12:28:42;;;;;;;9.65;2.70;;;;;;;;;;5072618;28;20029;-66
2022/06/03 12:31:14;;;;;;;9.30;2.65;;;;;;;;;;5072469;28;20121;-66
2022/06/03 12:33:48;;;;;;;9.05;2.75;;;;;;;;;;5069742;28;20440;-67
2022/06/03 12:36:32;;;;;;;9.68;2.60;;;;;;;;;;5070543;28;20068;-66
2022/06/03 12:39:01;;;;;;;7.40;2.38;;;;;;;;;;5072863;28;20045;-66
2022/06/03 12:41:46;;;;;;;8.77;2.67;;;;;;;;;;5073181;28;20086;-72
2022/06/03 12:44:30;;;;;;;11.98;2.95;;;;;;;;;;5068218;28;20032;-66
2022/06/03 12:47:16;;;;;;;6.53;2.80;;;;;;;;;;5069019;28;20041;-66
2022/06/03 12:49:45;;;;;;;7.20;3.03;;;;;;;;;;5072101;28;20028;-67
2022/06/03 12:52:13;;;;;;;11.10;2.85;;;;;;;;;;5072628;28;20044;-67
2022/06/03 12:54:48;;;;;;;8.13;2.88;;;;;;;;;;5072873;28;20043;-67
2022/06/03 12:57:39;;;;;;;6.30;2.50;;;;;;;;;;5073201;28;20131;-67
2022/06/03 13:00:07;;;;;;;7.28;2.65;;;;;;;;;;5072658;28;20047;-67
2022/06/03 13:02:37;;;;;;;7.53;2.92;;;;;;;;;;5072639;28;20493;-66
2022/06/03 13:05:03;;;;;;;7.05;2.63;;;;;;;;;;5072460;28;20036;-66
2022/06/03 13:07:32;;;;;;;10.32;2.70;;;;;;;;;;5071812;28;20029;-65
2022/06/03 13:10:04;;;;;;;8.63;2.65;;;;;;;;;;5071585;28;20396;-66
2022/06/03 13:12:33;;;;;;;11.25;2.90;;;;;;;;;;5071295;28;20075;-66
2022/06/03 13:15:17;;;;;;;18.60;3.42;;;;;;;;;;5070413;28;20031;-65
2022/06/03 13:20:39;;;;;;;9.02;2.92;;;;;;;;;;5070240;28;20377;-66
2022/06/03 13:23:24;;;;;;;7.63;2.63;;;;;;;;;;5072496;28;20029;-66
2022/06/03 13:25:52;;;;;;;12.15;3.10;;;;;;;;;;5072420;28;20052;-66
2022/06/03 13:28:30;;;;;;;6.68;2.80;;;;;;;;;;5072594;28;20086;-65
2022/06/03 13:31:22;;;;;;;12.77;2.80;;;;;;;;;;5072066;28;20425;-66
2022/06/03 13:34:00;;;;;;;10.57;3.03;;;;;;;;;;5070472;28;20493;-66
2022/06/03 13:36:34;;;;;;;6.93;2.92;;;;;;;;;;5072208;28;20068;-66
2022/06/03 13:39:01;;;;;;;5.97;2.92;;;;;;;;;;5072905;28;20020;-67
2022/06/03 13:44:40;;;;;;;10.15;2.97;;;;;;;;;;5073014;28;20090;-66
2022/06/03 13:47:08;;;;;;;10.93;2.70;;;;;;;;;;5071845;28;20070;-67
2022/06/03 13:49:36;;;;;;;13.10;3.05;;;;;;;;;;5070456;28;20040;-67
2022/06/03 13:52:04;;;;;;;9.95;3.20;;;;;;;;;;5069030;28;20044;-66
2022/06/03 13:54:33;;;;;;;10.07;2.58;;;;;;;;;;5071469;28;20067;-66
2022/06/03 13:57:02;;;;;;;10.38;2.97;;;;;;;;;;5072617;28;20036;-66
2022/06/03 13:59:32;;;;;;;7.70;3.03;;;;;;;;;;5074598;28;20112;-66
2022/06/03 14:01:58;;;;;;;10.00;3.60;;;;;;;;;;5075891;28;20075;-66
2022/06/03 14:04:27;;;;;;;8.98;3.03;;;;;;;;;;5076844;28;20033;-65
2022/06/03 14:06:57;;;;;;;11.57;2.90;;;;;;;;;;5076677;28;20112;-66
2022/06/03 14:09:36;;;;;;;8.25;2.90;;;;;;;;;;5076782;28;20039;-65
2022/06/03 14:12:08;;;;;;;11.27;2.70;;;;;;;;;;5076456;28;20040;-66
2022/06/03 14:14:57;;;;;;;7.43;2.85;;;;;;;;;;5076663;28;20516;-66
2022/06/03 14:17:29;;;;;;;20.52;3.35;;;;;;;;;;5070807;28;20544;-66
2022/06/03 14:20:05;;;;;;;8.93;3.08;;;;;;;;;;5076792;28;20056;-66
2022/06/03 14:22:31;;;;;;;12.80;2.95;;;;;;;;;;5076355;28;20116;-66
2022/06/03 14:25:00;;;;;;;6.00;2.78;;;;;;;;;;5076396;28;20497;-66
2022/06/03 14:27:40;;;;;;;8.65;2.90;;;;;;;;;;5076264;28;20114;-65
2022/06/03 14:30:14;;;;;;;8.35;3.35;;;;;;;;;;5076209;28;20057;-66
2022/06/03 14:32:43;;;;;;;8.32;2.92;;;;;;;;;;5076350;28;20047;-66
2022/06/03 14:35:11;;;;;;;8.00;2.88;;;;;;;;;;5076200;28;20028;-66
2022/06/03 14:37:48;;;;;;;8.60;3.08;;;;;;;;;;5076495;28;20219;-66
2022/06/03 14:40:16;;;;;;;9.20;2.72;;;;;;;;;;5076261;28;20029;-66
2022/06/03 14:42:42;;;;;;;9.32;2.72;;;;;;;;;;5076052;28;20063;-66
2022/06/03 14:45:10;;;;;;;15.10;2.60;;;;;;;;;;5076263;28;20415;-66
2022/06/03 14:47:39;;;;;;;15.40;2.97;;;;;;;;;;5076245;28;20067;-66
2022/06/03 14:50:08;;;;;;;5.82;2.47;;;;;;;;;;5076111;28;20032;-66
2022/06/03 14:52:42;;;;;;;7.55;2.75;;;;;;;;;;5075927;28;20048;-65
2022/06/03 14:55:13;;;;;;;9.60;2.47;;;;;;;;;;5075837;28;20032;-66
2022/06/03 14:57:41;;;;;;;5.93;2.28;;;;;;;;;;5075482;28;20047;-66
2022/06/03 15:00:17;;;;;;;19.10;3.42;;;;;;;;;;5074612;28;20562;-66
2022/06/03 15:02:43;;;;;;;11.68;2.90;;;;;;;;;;5075509;28;20048;-66
2022/06/03 15:05:29;;;;;;;9.25;2.90;;;;;;;;;;5075482;28;20389;-66
2022/06/03 15:08:01;;;;;;;10.40;2.55;;;;;;;;;;5075468;28;20055;-66
2022/06/03 15:10:28;;;;;;;7.15;3.22;;;;;;;;;;5074644;28;20032;-66
2022/06/03 15:12:56;;;;;;;7.05;2.92;;;;;;;;;;5075496;28;20037;-67
2022/06/03 15:15:40;;;;;;;11.90;4.07;;;;;;;;;;5075642;28;20112;-66
2022/06/03 15:18:13;;;;;;;11.32;4.03;;;;;;;;;;5075562;28;20546;-66
2022/06/03 15:20:40;;;;;;;12.68;4.03;;;;;;;;;;5075563;28;20427;-66
2022/06/03 15:23:07;;;;;;;14.60;4.30;;;;;;;;;;5075488;28;20128;-66
2022/06/03 15:25:42;;;;;;;8.52;3.67;;;;;;;;;;5072293;28;20037;-66
2022/06/03 15:28:09;;;;;;;13.07;3.78;;;;;;;;;;5072434;28;20062;-67
2022/06/03 15:30:38;;;;;;;18.40;3.75;;;;;;;;;;5074963;28;20043;-66
2022/06/03 15:33:10;;;;;;;8.70;3.03;;;;;;;;;;5075123;28;20076;-66
2022/06/03 15:35:36;;;;;;;10.13;4.13;;;;;;;;;;5075443;28;20033;-66
2022/06/03 15:38:04;;;;;;;11.43;3.92;;;;;;;;;;5075525;28;20040;-66
2022/06/03 15:40:35;;;;;;;10.27;4.03;;;;;;;;;;5075074;28;20056;-66
2022/06/03 15:43:03;;;;;;;11.95;4.28;;;;;;;;;;5074898;28;20131;-66
2022/06/03 15:45:38;;;;;;;10.60;4.43;;;;;;;;;;5075411;28;20481;-66
2022/06/03 15:48:09;;;;;;;11.63;4.40;;;;;;;;;;5075146;28;20040;-66
2022/06/03 15:50:35;;;;;;;19.60;5.28;;;;;;;;;;5074768;28;20035;-71
2022/06/03 15:53:04;;;;;;;13.18;4.97;;;;;;;;;;5072462;28;20044;-66
2022/06/03 15:55:39;;;;;;;9.82;4.90;;;;;;;;;;5070299;28;20491;-66
2022/06/03 15:58:12;;;;;;;9.38;4.82;;;;;;;;;;5071207;28;20548;-66
2022/06/03 16:00:42;;;;;;;14.60;5.35;;;;;;;;;;5073530;28;20083;-66
2022/06/03 16:03:08;;;;;;;8.32;4.78;;;;;;;;;;5074341;28;20028;-67
2022/06/03 16:05:43;;;;;;;11.68;4.80;;;;;;;;;;5074244;28;20443;-67
2022/06/03 16:08:17;;;;;;;12.93;4.65;;;;;;;;;;5073722;28;20449;-66
2022/06/03 16:10:58;;;;;;;14.23;5.03;;;;;;;;;;5073443;28;20028;-65
2022/06/03 16:13:24;;;;;;;13.48;5.20;;;;;;;;;;5073291;28;20037;-66
2022/06/03 16:16:03;;;;;;;11.77;5.68;;;;;;;;;;5072981;28;20074;-66
2022/06/03 16:18:29;;;;;;;15.20;5.30;;;;;;;;;;5073987;28;20037;-65
2022/06/03 16:21:01;;;;;;;12.23;5.20;;;;;;;;;;5073675;28;20032;-66
2022/06/03 16:23:42;;;;;;;8.50;5.05;;;;;;;;;;5073590;28;20047;-65
2022/06/03 16:26:16;;;;;;;14.33;5.37;;;;;;;;;;5073884;28;20036;-66
2022/06/03 16:29:18;;;;;;;9.85;5.57;;;;;;;;;;5073662;28;20481;-66
2022/06/03 16:31:48;;;;;;;10.98;4.80;;;;;;;;;;5011404;28;20089;-66
2022/06/03 16:34:14;;;;;;;8.50;4.68;;;;;;;;;;5063025;28;20024;-65
2022/06/03 16:36:46;;;;;;;13.65;5.53;;;;;;;;;;5073648;28;20114;-66
2022/06/03 16:39:12;;;;;;;;;;;;;;;;;;5073596;28;20389;-66
2022/06/03 16:41:50;;;;;;;11.00;4.70;;;;;;;;;;5073467;28;19905;-66
2022/06/03 16:44:22;;;;;;;11.00;5.30;;;;;;;;;;5073349;28;20036;-65
2022/06/03 16:46:54;;;;;;;10.65;5.25;;;;;;;;;;5073252;28;20120;-66
2022/06/03 16:49:20;;;;;;;;;;;;;;;;;;5073471;28;20423;-66
2022/06/03 16:51:56;;;;;;;15.93;5.30;;;;;;;;;;5073589;28;19974;-66
2022/06/03 16:54:24;;;;;;;15.88;5.30;;;;;;;;;;5073387;28;20032;-66
2022/06/03 16:56:57;;;;;;;13.68;5.10;;;;;;;;;;5073499;28;20441;-66
2022/06/03 16:59:23;;;;;;;10.70;5.47;;;;;;;;;;5073753;28;20043;-68
2022/06/03 17:01:51;;;;;;;9.73;5.35;;;;;;;;;;5073238;28;20029;-68
2022/06/03 17:04:22;;;;;;;11.52;5.38;;;;;;;;;;5073662;28;20033;-66
2022/06/03 17:06:57;;;;;;;9.88;5.18;;;;;;;;;;5073591;28;20063;-69
2022/06/03 17:09:25;;;;;;;12.88;5.40;;;;;;;;;;5073391;28;20377;-67
2022/06/03 17:11:51;;;;;;;9.75;5.05;;;;;;;;;;5070776;28;20110;-66
2022/06/03 17:14:19;;;;;;;9.57;5.18;;;;;;;;;;5072794;28;20033;-74